Airfield :







YOU CAN JOIN US ON...

 
LOGIN :

Register | Disclaimer

   EN    FR    IT 

 









Legend :    VFR   Marginal VFR   IFR   Intensive IFR   Very Intensive IFR
Visi :
Ceiling :
>= 8 km
>= 3000ft
5 to 8 km
1000 to 3000 ft
1500m to 5 km
500 to 1000 ft
800 to 1500m
200 to 500 ft
< 800m
< 200 ft
Symbols :   Thunderstorms  Fog  Heavy snow  Heavy precipitations  Wind > 20 kt






- Airport Elevation : 522 ft
- IATA code : YBG


CYBG - CFB Bagotville

CURRENT METAR :
  • 291900Z 09004KT 1 1/2SM -SN OVC020 M15/M18 A3023 RMK SC8 VIS VRB 1-2 SLP260

EXPIRED METARs :
  • 291800Z 09004KT 5SM -SN OVC030 M16/M22 A3023 RMK SC8 VIS VRB 3-7 SLP260
  • 291700Z 09002KT 25SM OVC100 M17/M22 A3027 RMK AC8 SLP271

TAF AMD TAF CYBG
Valid from the 29 at 18:00 until the 30 at 18:00 UTC


291812Z 2918/3018 VRB03KT P6SM -SN SCT030 OVC070
TEMPO 2918/2919 3SM -SN OVC030
FM291900 VRB03KT 3SM -SN OVC015
TEMPO 2919/3001 1SM -SN OVC010
PROB30 2919/3001 3/4SM -SN VV006
FM300100 VRB03KT 6SM -SN OVC020
TEMPO 3001/3005 2SM -SN OVC010
FM300500 28005KT P6SM BKN020 OVC030
FM301200 VRB03KT P6SM SCT025 BKN120 RMK NXT FCST BY 292100Z
CZUL FIR / North America



MET'MAP, your aeronautical weather chart ! - Copyright ORBIFLY December 2007 - Disclaimer

ORBIFLY MET'MAP TEAM :

Programming & Development : Alexandra Zaïnal
Original concept : Baudouin d'Aumeries
Technical & hardware support : Manuel Goepfert
Assistance : Marc-Olivier Méhu




SOURCES & CREDITS :

   NOAA